| time (UTC) | temp C | wind direction | speed KPH | gust KPH | rain 1hr cm | rain 24hr cm | rain mn cm | humidity % | barometer mb |
| 20260906023053 | 31 | 360 | 3.2 | 9.7 | 0.00 | 0.00 | 0.00 | 38 | 1006.0 |
| 20260906021549 | 31 | 360 | 4.8 | 11.3 | 0.00 | 0.00 | 0.00 | 38 | 1005.6 |
| 20260906020103 | 31 | 179 | 4.8 | 11.3 | 0.00 | 0.00 | 0.00 | 37 | 1005.3 |
| 20260906014547 | 31 | 360 | 6.4 | 11.3 | 0.00 | 0.00 | 0.00 | 36 | 1005.1 |
| 20260906013057 | 32 | 360 | 4.8 | 9.7 | 0.00 | 0.00 | 0.00 | 36 | 1004.9 |
| 20260906011559 | 32 | 163 | 6.4 | 12.9 | 0.00 | 0.00 | 0.00 | 35 | 1004.8 |
| 20260906010046 | 32 | 178 | 8.0 | 16.1 | 0.00 | 0.00 | 0.00 | 34 | 1004.7 |
| 20260906004548 | 32 | 179 | 8.0 | 16.1 | 0.00 | 0.00 | 0.00 | 33 | 1004.7 |
| 20260906003044 | 33 | 203 | 8.0 | 16.1 | 0.00 | 0.00 | 0.00 | 32 | 1004.7 |
| 20260906001546 | 33 | 198 | 11.3 | 25.7 | 0.00 | 0.00 | 0.00 | 32 | 1004.7 |
| 20260906000053 | 33 | 360 | 12.9 | 20.9 | 0.00 | 0.00 | 0.00 | 31 | 1004.5 |
| 20260905234545 | 33 | 179 | 14.5 | 25.7 | 0.00 | 0.00 | 0.00 | 31 | 1004.4 |
| 20260905233043 | 34 | 360 | 16.1 | 24.1 | 0.00 | 0.00 | 0.00 | 31 | 1004.2 |
| 20260905231542 | 34 | 193 | 14.5 | 30.6 | 0.00 | 0.00 | 0.00 | 31 | 1003.9 |
| 20260905230041 | 35 | 360 | 14.5 | 27.4 | 0.00 | 0.00 | 0.00 | 31 | 1003.9 |
| 20260905224548 | 35 | 179 | 17.7 | 32.2 | 0.00 | 0.00 | 0.00 | 30 | 1003.8 |
| 20260905223040 | 36 | 360 | 17.7 | 32.2 | 0.00 | 0.00 | 0.00 | 28 | 1003.9 |
| 20260905221540 | 37 | 149 | 11.3 | 22.5 | 0.00 | 0.00 | 0.00 | 27 | 1003.8 |
| 20260905220039 | 37 | 143 | 11.3 | 24.1 | 0.00 | 0.00 | 0.00 | 26 | 1003.8 |
| 20260905214536 | 36 | 153 | 8.0 | 17.7 | 0.00 | 0.00 | 0.00 | 27 | 1004.1 |
| 20260905213035 | 36 | 117 | 11.3 | 24.1 | 0.00 | 0.00 | 0.00 | 27 | 1004.2 |
| 20260905211539 | 36 | 112 | 9.7 | 20.9 | 0.00 | 0.00 | 0.00 | 26 | 1004.2 |
| 20260905210032 | 36 | 148 | 6.4 | 17.7 | 0.00 | 0.00 | 0.00 | 27 | 1004.5 |
| 20260905204536 | 37 | 193 | 9.7 | 17.7 | 0.00 | 0.00 | 0.00 | 26 | 1004.7 |
| 20260905203029 | 37 | 146 | 8.0 | 19.3 | 0.00 | 0.00 | 0.00 | 25 | 1004.8 |
| 20260905201526 | 36 | 101 | 6.4 | 17.7 | 0.00 | 0.00 | 0.00 | 26 | 1005.1 |
| 20260905200029 | 36 | 111 | 8.0 | 19.3 | 0.00 | 0.00 | 0.00 | 27 | 1005.4 |
| 20260905194523 | 36 | 117 | 6.4 | 17.7 | 0.00 | 0.00 | 0.00 | 27 | 1005.6 |
| 20260905193022 | 36 | 141 | 8.0 | 19.3 | 0.00 | 0.00 | 0.00 | 28 | 1005.8 |
| 20260905191522 | 36 | 117 | 12.9 | 24.1 | 0.00 | 0.00 | 0.00 | 29 | 1006.0 |
| 20260905190018 | 37 | 158 | 4.8 | 16.1 | 0.00 | 0.00 | 0.00 | 27 | 1006.0 |
| 20260905184539 | 36 | 203 | 8.0 | 16.1 | 0.00 | 0.00 | 0.00 | 28 | 1006.2 |
| 20260905183032 | 36 | 101 | 6.4 | 19.3 | 0.00 | 0.00 | 0.00 | 29 | 1006.5 |
| 20260905181510 | 35 | 99 | 4.8 | 12.9 | 0.00 | 0.00 | 0.00 | 30 | 1006.7 |
| 20260905180006 | 35 | 198 | 3.2 | 11.3 | 0.00 | 0.00 | 0.00 | 30 | 1006.9 |
| 20260905174508 | 35 | 360 | 4.8 | 12.9 | 0.00 | 0.00 | 0.00 | 31 | 1006.9 |
| 20260905173113 | 35 | 196 | 3.2 | 17.7 | 0.00 | 0.00 | 0.00 | 32 | 1007.1 |
| 20260905171614 | 34 | 150 | 4.8 | 9.7 | 0.00 | 0.00 | 0.00 | 33 | 1007.3 |
| 20260905170056 | 33 | 209 | 3.2 | 8.0 | 0.00 | 0.00 | 0.00 | 36 | 1007.3 |
| 20260905164552 | 33 | 210 | 1.6 | 8.0 | 0.00 | 0.00 | 0.00 | 39 | 1007.4 |
| 20260905163047 | 32 | 209 | 3.2 | 11.3 | 0.00 | 0.00 | 0.00 | 42 | 1007.3 |
| 20260905161544 | 31 | 218 | 3.2 | 11.3 | 0.00 | 0.00 | 0.00 | 45 | 1007.2 |
| 20260905160042 | 30 | 217 | 4.8 | 12.9 | 0.00 | 0.00 | 0.00 | 48 | 1007.3 |
| 20260905154559 | 29 | 212 | 6.4 | 16.1 | 0.00 | 0.00 | 0.00 | 51 | 1007.5 |
| 20260905153033 | 28 | 196 | 8.0 | 14.5 | 0.00 | 0.00 | 0.00 | 54 | 1007.5 |
| 20260905151530 | 27 | 203 | 6.4 | 14.5 | 0.00 | 0.00 | 0.00 | 56 | 1007.6 |
| 20260905150027 | 27 | 203 | 4.8 | 11.3 | 0.00 | 0.00 | 0.00 | 60 | 1007.5 |
| 20260905144528 | 26 | 236 | 8.0 | 14.5 | 0.00 | 0.00 | 0.00 | 62 | 1007.5 |
| 20260905143022 | 25 | 214 | 6.4 | 14.5 | 0.00 | 0.00 | 0.00 | 65 | 1007.4 |
| 20260905141526 | 25 | 179 | 8.0 | 14.5 | 0.00 | 0.00 | 0.00 | 68 | 1007.5 |
| 20260905140020 | 24 | 198 | 6.4 | 14.5 | 0.00 | 0.00 | 0.00 | 69 | 1007.3 |
| 20260905134517 | 23 | 198 | 6.4 | 14.5 | 0.00 | 0.00 | 0.00 | 71 | 1007.4 |
| 20260905133029 | 23 | 360 | 4.8 | 11.3 | 0.00 | 0.00 | 0.00 | 73 | 1007.3 |
| 20260905131513 | 22 | 360 | 3.2 | 11.3 | 0.00 | 0.00 | 0.00 | 73 | 1007.0 |
| 20260905130014 | 22 | 360 | 1.6 | 8.0 | 0.00 | 0.00 | 0.00 | 73 | 1006.8 |
| 20260905124509 | 22 | 360 | 4.8 | 9.7 | 0.00 | 0.00 | 0.00 | 73 | 1006.8 |
| 20260905123005 | 22 | 178 | 4.8 | 9.7 | 0.00 | 0.00 | 0.00 | 72 | 1006.7 |
| 20260905121504 | 22 | 179 | 4.8 | 12.9 | 0.00 | 0.00 | 0.00 | 72 | 1006.6 |
| 20260905120001 | 23 | 360 | 6.4 | 11.3 | 0.00 | 0.00 | 0.00 | 72 | 1006.4 |
| 20260905114600 | 23 | 164 | 4.8 | 11.3 | 0.00 | 0.00 | 0.00 | 71 | 1006.4 |
| 20260905113059 | 23 | 360 | 6.4 | 11.3 | 0.00 | 0.00 | 0.00 | 71 | 1006.4 |
| 20260905111646 | 23 | 179 | 6.4 | 12.9 | 0.00 | 0.00 | 0.00 | 71 | 1006.5 |
| 20260905110058 | 23 | 195 | 6.4 | 11.3 | 0.00 | 0.00 | 0.00 | 71 | 1006.3 |
| 20260905104603 | 23 | 179 | 4.8 | 9.7 | 0.00 | 0.00 | 0.00 | 71 | 1006.2 |
| 20260905103055 | 23 | 179 | 6.4 | 16.1 | 0.00 | 0.00 | 0.00 | 72 | 1006.1 |
| 20260905101602 | 23 | 179 | 6.4 | 12.9 | 0.00 | 0.00 | 0.00 | 71 | 1006.1 |
| 20260905100051 | 23 | 193 | 6.4 | 12.9 | 0.00 | 0.00 | 0.00 | 71 | 1006.1 |
| 20260905094544 | 23 | 200 | 6.4 | 16.1 | 0.00 | 0.00 | 0.00 | 70 | 1006.0 |
| 20260905093041 | 23 | 360 | 8.0 | 16.1 | 0.00 | 0.00 | 0.00 | 70 | 1006.0 |
| 20260905091538 | 23 | 360 | 4.8 | 12.9 | 0.00 | 0.00 | 0.00 | 69 | 1006.2 |
| 20260905090039 | 23 | 196 | 8.0 | 12.9 | 0.00 | 0.00 | 0.00 | 69 | 1005.9 |
| 20260905084537 | 24 | 360 | 6.4 | 12.9 | 0.00 | 0.00 | 0.00 | 68 | 1006.0 |
| 20260905083032 | 24 | 360 | 6.4 | 14.5 | 0.00 | 0.00 | 0.00 | 67 | 1006.0 |
| 20260905081524 | 24 | 192 | 6.4 | 14.5 | 0.00 | 0.00 | 0.00 | 66 | 1006.0 |
| 20260905080033 | 25 | 197 | 6.4 | 14.5 | 0.00 | 0.00 | 0.00 | 65 | 1006.2 |
| 20260905074519 | 25 | 198 | 8.0 | 16.1 | 0.00 | 0.00 | 0.00 | 65 | 1006.3 |
| 20260905073014 | 25 | 200 | 8.0 | 16.1 | 0.00 | 0.00 | 0.00 | 64 | 1006.4 |
| 20260905071518 | 25 | 220 | 6.4 | 17.7 | 0.00 | 0.00 | 0.00 | 63 | 1006.5 |
| 20260905070009 | 25 | 214 | 4.8 | 11.3 | 0.00 | 0.00 | 0.00 | 61 | 1006.4 |
| 20260905064513 | 25 | 205 | 8.0 | 24.1 | 0.00 | 0.00 | 0.00 | 61 | 1006.4 |
| 20260905063002 | 26 | 206 | 9.7 | 22.5 | 0.00 | 0.00 | 0.00 | 60 | 1006.3 |
| 20260905061602 | 26 | 198 | 11.3 | 25.7 | 0.00 | 0.00 | 0.00 | 60 | 1006.3 |
| 20260905060055 | 26 | 198 | 14.5 | 25.7 | 0.00 | 0.00 | 0.00 | 59 | 1006.3 |
| 20260905054553 | 26 | 151 | 9.7 | 24.1 | 0.00 | 0.00 | 0.00 | 57 | 1006.3 |
| 20260905053058 | 27 | 196 | 14.5 | 27.4 | 0.00 | 0.00 | 0.00 | 54 | 1006.2 |
| 20260905051552 | 27 | 195 | 14.5 | 29.0 | 0.00 | 0.00 | 0.00 | 52 | 1006.1 |
| 20260905050052 | 27 | 155 | 16.1 | 32.2 | 0.00 | 0.00 | 0.00 | 49 | 1006.1 |
| 20260905044550 | 28 | 162 | 14.5 | 32.2 | 0.00 | 0.00 | 0.00 | 47 | 1006.2 |
| 20260905043056 | 28 | 360 | 19.3 | 30.6 | 0.00 | 0.00 | 0.00 | 46 | 1006.4 |
| 20260905041549 | 28 | 149 | 16.1 | 27.4 | 0.00 | 0.00 | 0.00 | 44 | 1006.3 |
| 20260905040048 | 30 | 178 | 17.7 | 30.6 | 0.00 | 0.00 | 0.00 | 42 | 1006.3 |
| 20260905034602 | 30 | 139 | 19.3 | 38.6 | 0.00 | 0.00 | 0.00 | 40 | 1005.9 |
| 20260905033111 | 31 | 155 | 14.5 | 33.8 | 0.00 | 0.00 | 0.00 | 36 | 1006.0 |
| 20260905031557 | 32 | 202 | 3.2 | 11.3 | 0.00 | 0.00 | 0.00 | 25 | 1005.5 |
| 20260905030056 | 32 | 205 | 3.2 | 9.7 | 0.00 | 0.00 | 0.00 | 25 | 1005.0 |
| 20260905024546 | 32 | 207 | 4.8 | 9.7 | 0.00 | 0.00 | 0.00 | 24 | 1004.8 |